sensor_id;sensor_type;location;lat;lon;timestamp;P1;durP1;ratioP1;P2;durP2;ratioP2
9214;SDS011;4642;51.364;6.788;2023-09-18T00:00:53;12.30;;;5.10;;
9214;SDS011;4642;51.364;6.788;2023-09-18T00:03:19;12.27;;;4.63;;
9214;SDS011;4642;51.364;6.788;2023-09-18T00:05:46;15.90;;;4.77;;
9214;SDS011;4642;51.364;6.788;2023-09-18T00:08:13;15.53;;;4.50;;
9214;SDS011;4642;51.364;6.788;2023-09-18T00:10:39;17.20;;;5.27;;
9214;SDS011;4642;51.364;6.788;2023-09-18T00:13:04;15.67;;;4.80;;
9214;SDS011;4642;51.364;6.788;2023-09-18T00:15:30;14.87;;;4.23;;
9214;SDS011;4642;51.364;6.788;2023-09-18T00:17:56;19.47;;;4.53;;
9214;SDS011;4642;51.364;6.788;2023-09-18T00:20:21;11.67;;;4.70;;
9214;SDS011;4642;51.364;6.788;2023-09-18T00:22:51;18.03;;;4.97;;
9214;SDS011;4642;51.364;6.788;2023-09-18T00:25:20;12.57;;;5.03;;
9214;SDS011;4642;51.364;6.788;2023-09-18T00:27:46;14.23;;;5.50;;
9214;SDS011;4642;51.364;6.788;2023-09-18T00:30:12;12.47;;;4.53;;
9214;SDS011;4642;51.364;6.788;2023-09-18T00:32:37;9.70;;;4.47;;
9214;SDS011;4642;51.364;6.788;2023-09-18T00:35:03;16.37;;;5.37;;
9214;SDS011;4642;51.364;6.788;2023-09-18T00:37:29;19.83;;;4.27;;
9214;SDS011;4642;51.364;6.788;2023-09-18T00:39:55;14.13;;;5.00;;
9214;SDS011;4642;51.364;6.788;2023-09-18T00:42:20;16.50;;;4.87;;
9214;SDS011;4642;51.364;6.788;2023-09-18T00:44:47;10.70;;;4.87;;
9214;SDS011;4642;51.364;6.788;2023-09-18T00:47:13;13.93;;;4.60;;
9214;SDS011;4642;51.364;6.788;2023-09-18T00:49:40;13.90;;;5.07;;
9214;SDS011;4642;51.364;6.788;2023-09-18T00:52:08;10.87;;;4.47;;
9214;SDS011;4642;51.364;6.788;2023-09-18T00:54:35;13.83;;;4.67;;
9214;SDS011;4642;51.364;6.788;2023-09-18T00:57:04;12.47;;;4.83;;
9214;SDS011;4642;51.364;6.788;2023-09-18T00:59:30;11.93;;;4.33;;
9214;SDS011;4642;51.364;6.788;2023-09-18T01:01:56;12.03;;;4.80;;
9214;SDS011;4642;51.364;6.788;2023-09-18T01:04:22;13.93;;;4.77;;
9214;SDS011;4642;51.364;6.788;2023-09-18T01:06:51;11.83;;;4.17;;
9214;SDS011;4642;51.364;6.788;2023-09-18T01:09:19;22.30;;;4.53;;
9214;SDS011;4642;51.364;6.788;2023-09-18T01:12:33;10.93;;;4.20;;
9214;SDS011;4642;51.364;6.788;2023-09-18T01:17:03;15.00;;;4.67;;
9214;SDS011;4642;51.364;6.788;2023-09-18T01:22:06;14.20;;;5.53;;
9214;SDS011;4642;51.364;6.788;2023-09-18T01:24:33;10.60;;;5.27;;
9214;SDS011;4642;51.364;6.788;2023-09-18T01:26:59;22.93;;;5.97;;
9214;SDS011;4642;51.364;6.788;2023-09-18T01:29:25;12.37;;;5.13;;
9214;SDS011;4642;51.364;6.788;2023-09-18T01:31:51;12.83;;;5.13;;
9214;SDS011;4642;51.364;6.788;2023-09-18T01:34:18;19.60;;;5.80;;
9214;SDS011;4642;51.364;6.788;2023-09-18T01:36:46;11.47;;;5.73;;
9214;SDS011;4642;51.364;6.788;2023-09-18T01:39:12;18.00;;;5.13;;
9214;SDS011;4642;51.364;6.788;2023-09-18T01:41:38;14.27;;;6.20;;
9214;SDS011;4642;51.364;6.788;2023-09-18T01:44:05;14.73;;;5.17;;
9214;SDS011;4642;51.364;6.788;2023-09-18T01:46:32;16.87;;;5.40;;
9214;SDS011;4642;51.364;6.788;2023-09-18T01:49:01;15.73;;;5.17;;
9214;SDS011;4642;51.364;6.788;2023-09-18T01:51:29;15.57;;;4.80;;
9214;SDS011;4642;51.364;6.788;2023-09-18T01:53:55;15.40;;;5.00;;
9214;SDS011;4642;51.364;6.788;2023-09-18T01:56:21;12.97;;;5.10;;
9214;SDS011;4642;51.364;6.788;2023-09-18T01:58:48;9.73;;;5.27;;
9214;SDS011;4642;51.364;6.788;2023-09-18T02:01:14;18.17;;;5.07;;
9214;SDS011;4642;51.364;6.788;2023-09-18T02:03:39;9.80;;;5.00;;
9214;SDS011;4642;51.364;6.788;2023-09-18T02:06:09;18.63;;;4.97;;
9214;SDS011;4642;51.364;6.788;2023-09-18T02:08:35;16.63;;;4.90;;
9214;SDS011;4642;51.364;6.788;2023-09-18T02:11:00;11.40;;;5.20;;
9214;SDS011;4642;51.364;6.788;2023-09-18T02:13:27;14.43;;;4.80;;
9214;SDS011;4642;51.364;6.788;2023-09-18T02:15:53;12.50;;;4.77;;
9214;SDS011;4642;51.364;6.788;2023-09-18T02:18:20;15.10;;;5.00;;
9214;SDS011;4642;51.364;6.788;2023-09-18T02:20:46;12.83;;;5.23;;
9214;SDS011;4642;51.364;6.788;2023-09-18T02:23:13;23.93;;;5.77;;
9214;SDS011;4642;51.364;6.788;2023-09-18T02:25:40;13.90;;;5.10;;
9214;SDS011;4642;51.364;6.788;2023-09-18T02:28:06;15.33;;;5.00;;
9214;SDS011;4642;51.364;6.788;2023-09-18T02:30:32;15.30;;;4.83;;
9214;SDS011;4642;51.364;6.788;2023-09-18T02:32:57;17.33;;;5.10;;
9214;SDS011;4642;51.364;6.788;2023-09-18T02:35:24;23.17;;;5.63;;
9214;SDS011;4642;51.364;6.788;2023-09-18T02:37:50;19.13;;;6.03;;
9214;SDS011;4642;51.364;6.788;2023-09-18T02:40:15;14.97;;;5.43;;
9214;SDS011;4642;51.364;6.788;2023-09-18T02:42:41;19.77;;;5.50;;
9214;SDS011;4642;51.364;6.788;2023-09-18T02:45:07;15.20;;;5.70;;
9214;SDS011;4642;51.364;6.788;2023-09-18T02:47:34;13.33;;;5.77;;
9214;SDS011;4642;51.364;6.788;2023-09-18T02:50:02;12.53;;;5.20;;
9214;SDS011;4642;51.364;6.788;2023-09-18T02:52:29;18.27;;;5.53;;
9214;SDS011;4642;51.364;6.788;2023-09-18T02:54:54;14.13;;;6.17;;
9214;SDS011;4642;51.364;6.788;2023-09-18T02:57:20;15.70;;;5.80;;
9214;SDS011;4642;51.364;6.788;2023-09-18T02:59:46;15.77;;;6.00;;
9214;SDS011;4642;51.364;6.788;2023-09-18T03:02:11;11.90;;;5.83;;
9214;SDS011;4642;51.364;6.788;2023-09-18T03:04:37;12.53;;;5.73;;
9214;SDS011;4642;51.364;6.788;2023-09-18T03:07:02;10.63;;;6.07;;
9214;SDS011;4642;51.364;6.788;2023-09-18T03:09:28;11.90;;;6.67;;
9214;SDS011;4642;51.364;6.788;2023-09-18T03:11:54;11.23;;;6.27;;
9214;SDS011;4642;51.364;6.788;2023-09-18T03:14:20;10.30;;;6.80;;
9214;SDS011;4642;51.364;6.788;2023-09-18T03:16:45;12.03;;;6.43;;
9214;SDS011;4642;51.364;6.788;2023-09-18T03:19:11;10.00;;;7.03;;
9214;SDS011;4642;51.364;6.788;2023-09-18T03:21:37;9.80;;;6.20;;
9214;SDS011;4642;51.364;6.788;2023-09-18T03:24:03;9.43;;;6.13;;
9214;SDS011;4642;51.364;6.788;2023-09-18T03:26:29;13.83;;;6.40;;
9214;SDS011;4642;51.364;6.788;2023-09-18T03:28:55;12.30;;;6.30;;
9214;SDS011;4642;51.364;6.788;2023-09-18T03:31:20;17.60;;;6.40;;
9214;SDS011;4642;51.364;6.788;2023-09-18T03:33:46;9.80;;;5.47;;
9214;SDS011;4642;51.364;6.788;2023-09-18T03:36:11;10.63;;;5.97;;
9214;SDS011;4642;51.364;6.788;2023-09-18T03:38:38;11.13;;;5.90;;
9214;SDS011;4642;51.364;6.788;2023-09-18T03:41:04;15.97;;;5.53;;
9214;SDS011;4642;51.364;6.788;2023-09-18T03:43:29;9.33;;;5.57;;
9214;SDS011;4642;51.364;6.788;2023-09-18T03:45:55;12.60;;;5.53;;
9214;SDS011;4642;51.364;6.788;2023-09-18T03:48:28;9.63;;;5.10;;
9214;SDS011;4642;51.364;6.788;2023-09-18T03:50:56;13.53;;;5.60;;
9214;SDS011;4642;51.364;6.788;2023-09-18T03:53:21;12.50;;;5.37;;
9214;SDS011;4642;51.364;6.788;2023-09-18T03:55:48;13.57;;;5.70;;
9214;SDS011;4642;51.364;6.788;2023-09-18T03:58:14;6.77;;;4.50;;
9214;SDS011;4642;51.364;6.788;2023-09-18T04:00:39;7.93;;;5.10;;
9214;SDS011;4642;51.364;6.788;2023-09-18T04:03:05;11.43;;;5.40;;
9214;SDS011;4642;51.364;6.788;2023-09-18T04:05:30;12.13;;;5.60;;
9214;SDS011;4642;51.364;6.788;2023-09-18T04:07:56;10.17;;;5.50;;
9214;SDS011;4642;51.364;6.788;2023-09-18T04:10:21;12.73;;;4.80;;
9214;SDS011;4642;51.364;6.788;2023-09-18T04:12:48;10.50;;;5.00;;
9214;SDS011;4642;51.364;6.788;2023-09-18T04:15:15;8.70;;;5.70;;
9214;SDS011;4642;51.364;6.788;2023-09-18T04:17:43;8.97;;;5.03;;
9214;SDS011;4642;51.364;6.788;2023-09-18T04:20:09;10.50;;;5.00;;
9214;SDS011;4642;51.364;6.788;2023-09-18T04:22:35;12.13;;;5.03;;
9214;SDS011;4642;51.364;6.788;2023-09-18T04:25:01;12.10;;;5.30;;
9214;SDS011;4642;51.364;6.788;2023-09-18T04:27:30;12.10;;;5.03;;
9214;SDS011;4642;51.364;6.788;2023-09-18T04:29:56;10.07;;;5.47;;
9214;SDS011;4642;51.364;6.788;2023-09-18T04:32:21;14.33;;;4.60;;
9214;SDS011;4642;51.364;6.788;2023-09-18T04:34:47;16.33;;;5.20;;
9214;SDS011;4642;51.364;6.788;2023-09-18T04:37:12;10.13;;;5.30;;
9214;SDS011;4642;51.364;6.788;2023-09-18T04:39:38;11.10;;;5.23;;
9214;SDS011;4642;51.364;6.788;2023-09-18T04:42:03;12.80;;;5.03;;
9214;SDS011;4642;51.364;6.788;2023-09-18T04:44:29;12.23;;;4.93;;
9214;SDS011;4642;51.364;6.788;2023-09-18T04:46:55;8.63;;;4.53;;
9214;SDS011;4642;51.364;6.788;2023-09-18T04:49:22;9.70;;;4.73;;
9214;SDS011;4642;51.364;6.788;2023-09-18T04:51:48;12.50;;;5.20;;
9214;SDS011;4642;51.364;6.788;2023-09-18T04:54:14;13.03;;;5.00;;
9214;SDS011;4642;51.364;6.788;2023-09-18T04:56:40;11.50;;;5.60;;
9214;SDS011;4642;51.364;6.788;2023-09-18T04:59:06;13.87;;;5.77;;
9214;SDS011;4642;51.364;6.788;2023-09-18T05:01:31;10.03;;;5.30;;
9214;SDS011;4642;51.364;6.788;2023-09-18T05:03:57;12.00;;;5.20;;
9214;SDS011;4642;51.364;6.788;2023-09-18T05:06:22;11.93;;;5.37;;
9214;SDS011;4642;51.364;6.788;2023-09-18T05:08:48;10.53;;;4.80;;
9214;SDS011;4642;51.364;6.788;2023-09-18T05:11:14;14.27;;;5.13;;
9214;SDS011;4642;51.364;6.788;2023-09-18T05:13:39;10.07;;;4.90;;
9214;SDS011;4642;51.364;6.788;2023-09-18T05:16:05;7.07;;;5.07;;
9214;SDS011;4642;51.364;6.788;2023-09-18T05:18:30;7.73;;;5.40;;
9214;SDS011;4642;51.364;6.788;2023-09-18T05:20:59;8.80;;;4.87;;
9214;SDS011;4642;51.364;6.788;2023-09-18T05:23:26;11.93;;;5.33;;
9214;SDS011;4642;51.364;6.788;2023-09-18T05:25:51;8.67;;;4.90;;
9214;SDS011;4642;51.364;6.788;2023-09-18T05:28:18;9.80;;;5.50;;
9214;SDS011;4642;51.364;6.788;2023-09-18T05:30:46;13.57;;;5.43;;
9214;SDS011;4642;51.364;6.788;2023-09-18T05:33:12;9.80;;;5.53;;
9214;SDS011;4642;51.364;6.788;2023-09-18T05:35:42;6.73;;;4.90;;
9214;SDS011;4642;51.364;6.788;2023-09-18T05:38:10;12.57;;;5.07;;
9214;SDS011;4642;51.364;6.788;2023-09-18T05:40:36;8.50;;;4.90;;
9214;SDS011;4642;51.364;6.788;2023-09-18T05:43:02;14.97;;;5.10;;
9214;SDS011;4642;51.364;6.788;2023-09-18T05:45:28;8.37;;;5.00;;
9214;SDS011;4642;51.364;6.788;2023-09-18T05:47:54;8.53;;;4.93;;
9214;SDS011;4642;51.364;6.788;2023-09-18T05:50:26;12.17;;;4.73;;
9214;SDS011;4642;51.364;6.788;2023-09-18T05:52:54;13.17;;;4.70;;
9214;SDS011;4642;51.364;6.788;2023-09-18T05:55:19;10.63;;;3.80;;
9214;SDS011;4642;51.364;6.788;2023-09-18T05:57:45;14.00;;;5.10;;
9214;SDS011;4642;51.364;6.788;2023-09-18T06:00:11;10.33;;;5.00;;
9214;SDS011;4642;51.364;6.788;2023-09-18T06:02:38;10.17;;;5.00;;
9214;SDS011;4642;51.364;6.788;2023-09-18T06:05:05;11.90;;;5.13;;
9214;SDS011;4642;51.364;6.788;2023-09-18T06:07:31;10.20;;;4.63;;
9214;SDS011;4642;51.364;6.788;2023-09-18T06:09:57;12.43;;;4.43;;
9214;SDS011;4642;51.364;6.788;2023-09-18T06:12:23;7.30;;;4.03;;
9214;SDS011;4642;51.364;6.788;2023-09-18T06:14:49;16.83;;;4.97;;
9214;SDS011;4642;51.364;6.788;2023-09-18T06:17:15;9.13;;;4.30;;
9214;SDS011;4642;51.364;6.788;2023-09-18T06:19:41;10.57;;;4.30;;
9214;SDS011;4642;51.364;6.788;2023-09-18T06:22:07;9.83;;;4.13;;
9214;SDS011;4642;51.364;6.788;2023-09-18T06:24:33;9.20;;;3.70;;
9214;SDS011;4642;51.364;6.788;2023-09-18T06:27:00;11.10;;;4.50;;
9214;SDS011;4642;51.364;6.788;2023-09-18T06:29:25;10.73;;;4.43;;
9214;SDS011;4642;51.364;6.788;2023-09-18T06:31:51;8.10;;;4.03;;
9214;SDS011;4642;51.364;6.788;2023-09-18T06:34:16;8.33;;;3.87;;
9214;SDS011;4642;51.364;6.788;2023-09-18T06:36:42;7.77;;;3.50;;
9214;SDS011;4642;51.364;6.788;2023-09-18T06:39:08;9.30;;;3.70;;
9214;SDS011;4642;51.364;6.788;2023-09-18T06:41:33;9.20;;;3.50;;
9214;SDS011;4642;51.364;6.788;2023-09-18T06:44:00;8.93;;;3.60;;
9214;SDS011;4642;51.364;6.788;2023-09-18T06:46:28;8.70;;;3.90;;
9214;SDS011;4642;51.364;6.788;2023-09-18T06:48:55;12.23;;;3.90;;
9214;SDS011;4642;51.364;6.788;2023-09-18T06:51:21;7.83;;;3.53;;
9214;SDS011;4642;51.364;6.788;2023-09-18T06:53:48;10.60;;;3.50;;
9214;SDS011;4642;51.364;6.788;2023-09-18T06:56:13;7.83;;;3.10;;
9214;SDS011;4642;51.364;6.788;2023-09-18T06:58:39;9.53;;;3.00;;
9214;SDS011;4642;51.364;6.788;2023-09-18T07:01:04;5.13;;;2.90;;
9214;SDS011;4642;51.364;6.788;2023-09-18T07:03:34;5.80;;;3.33;;
9214;SDS011;4642;51.364;6.788;2023-09-18T07:06:01;8.30;;;3.03;;
9214;SDS011;4642;51.364;6.788;2023-09-18T07:08:27;8.30;;;3.17;;
9214;SDS011;4642;51.364;6.788;2023-09-18T07:10:53;7.00;;;2.70;;
9214;SDS011;4642;51.364;6.788;2023-09-18T07:13:18;6.37;;;2.57;;
9214;SDS011;4642;51.364;6.788;2023-09-18T07:15:44;5.37;;;2.63;;
9214;SDS011;4642;51.364;6.788;2023-09-18T07:18:10;8.73;;;2.40;;
9214;SDS011;4642;51.364;6.788;2023-09-18T07:20:39;6.17;;;2.87;;
9214;SDS011;4642;51.364;6.788;2023-09-18T07:23:05;6.63;;;2.13;;
9214;SDS011;4642;51.364;6.788;2023-09-18T07:25:31;7.37;;;2.30;;
9214;SDS011;4642;51.364;6.788;2023-09-18T07:27:56;5.67;;;2.20;;
9214;SDS011;4642;51.364;6.788;2023-09-18T07:30:22;7.07;;;2.10;;
9214;SDS011;4642;51.364;6.788;2023-09-18T07:32:51;4.90;;;2.17;;
9214;SDS011;4642;51.364;6.788;2023-09-18T07:35:23;5.80;;;1.90;;
9214;SDS011;4642;51.364;6.788;2023-09-18T07:37:49;6.77;;;2.10;;
9214;SDS011;4642;51.364;6.788;2023-09-18T07:40:15;6.13;;;2.00;;
9214;SDS011;4642;51.364;6.788;2023-09-18T07:42:43;4.30;;;1.93;;
9214;SDS011;4642;51.364;6.788;2023-09-18T07:45:09;6.83;;;2.00;;
9214;SDS011;4642;51.364;6.788;2023-09-18T07:47:35;10.30;;;2.37;;
9214;SDS011;4642;51.364;6.788;2023-09-18T07:50:01;9.03;;;2.40;;
9214;SDS011;4642;51.364;6.788;2023-09-18T07:52:27;5.33;;;2.37;;
9214;SDS011;4642;51.364;6.788;2023-09-18T07:54:53;7.70;;;2.13;;
9214;SDS011;4642;51.364;6.788;2023-09-18T07:57:18;7.70;;;1.90;;
9214;SDS011;4642;51.364;6.788;2023-09-18T07:59:45;5.33;;;1.83;;
9214;SDS011;4642;51.364;6.788;2023-09-18T08:02:11;5.40;;;1.90;;
9214;SDS011;4642;51.364;6.788;2023-09-18T08:04:37;8.23;;;1.70;;
9214;SDS011;4642;51.364;6.788;2023-09-18T08:07:02;6.93;;;2.10;;
9214;SDS011;4642;51.364;6.788;2023-09-18T08:09:30;5.50;;;1.57;;
9214;SDS011;4642;51.364;6.788;2023-09-18T08:11:56;6.70;;;2.13;;
9214;SDS011;4642;51.364;6.788;2023-09-18T08:14:22;7.50;;;1.90;;
9214;SDS011;4642;51.364;6.788;2023-09-18T08:16:47;5.67;;;1.80;;
9214;SDS011;4642;51.364;6.788;2023-09-18T08:19:16;4.37;;;1.60;;
9214;SDS011;4642;51.364;6.788;2023-09-18T08:21:42;5.67;;;1.80;;
9214;SDS011;4642;51.364;6.788;2023-09-18T08:24:07;2.23;;;1.53;;
9214;SDS011;4642;51.364;6.788;2023-09-18T08:26:33;5.43;;;1.57;;
9214;SDS011;4642;51.364;6.788;2023-09-18T08:28:59;4.40;;;1.47;;
9214;SDS011;4642;51.364;6.788;2023-09-18T08:31:24;5.83;;;1.50;;
9214;SDS011;4642;51.364;6.788;2023-09-18T08:33:52;2.53;;;1.30;;
9214;SDS011;4642;51.364;6.788;2023-09-18T08:36:17;3.57;;;1.67;;
9214;SDS011;4642;51.364;6.788;2023-09-18T08:38:43;4.03;;;1.83;;
9214;SDS011;4642;51.364;6.788;2023-09-18T08:41:09;4.67;;;1.33;;
9214;SDS011;4642;51.364;6.788;2023-09-18T08:43:37;3.47;;;1.30;;
9214;SDS011;4642;51.364;6.788;2023-09-18T08:46:04;3.50;;;1.40;;
9214;SDS011;4642;51.364;6.788;2023-09-18T08:48:30;3.93;;;1.40;;
9214;SDS011;4642;51.364;6.788;2023-09-18T08:51:01;3.80;;;1.40;;
9214;SDS011;4642;51.364;6.788;2023-09-18T08:53:30;2.53;;;1.37;;
9214;SDS011;4642;51.364;6.788;2023-09-18T08:55:58;4.50;;;1.57;;
9214;SDS011;4642;51.364;6.788;2023-09-18T08:58:26;2.63;;;1.37;;
9214;SDS011;4642;51.364;6.788;2023-09-18T09:00:53;3.40;;;1.50;;
9214;SDS011;4642;51.364;6.788;2023-09-18T09:03:18;5.73;;;1.63;;
9214;SDS011;4642;51.364;6.788;2023-09-18T09:05:44;3.90;;;1.33;;
9214;SDS011;4642;51.364;6.788;2023-09-18T09:08:09;4.20;;;1.50;;
9214;SDS011;4642;51.364;6.788;2023-09-18T09:10:35;5.07;;;1.30;;
9214;SDS011;4642;51.364;6.788;2023-09-18T09:13:01;4.67;;;1.70;;
9214;SDS011;4642;51.364;6.788;2023-09-18T09:16:00;2.40;;;1.40;;
9214;SDS011;4642;51.364;6.788;2023-09-18T09:18:23;3.73;;;1.20;;
9214;SDS011;4642;51.364;6.788;2023-09-18T09:20:53;5.83;;;1.67;;
9214;SDS011;4642;51.364;6.788;2023-09-18T09:23:28;2.87;;;1.47;;
9214;SDS011;4642;51.364;6.788;2023-09-18T09:26:16;6.37;;;1.57;;
9214;SDS011;4642;51.364;6.788;2023-09-18T09:28:41;1.80;;;1.20;;
9214;SDS011;4642;51.364;6.788;2023-09-18T09:31:08;2.37;;;1.10;;
9214;SDS011;4642;51.364;6.788;2023-09-18T09:33:35;4.60;;;1.53;;
9214;SDS011;4642;51.364;6.788;2023-09-18T09:36:04;5.47;;;1.43;;
9214;SDS011;4642;51.364;6.788;2023-09-18T09:38:30;7.60;;;1.47;;
9214;SDS011;4642;51.364;6.788;2023-09-18T09:40:58;5.70;;;1.73;;
9214;SDS011;4642;51.364;6.788;2023-09-18T09:43:25;4.33;;;1.30;;
9214;SDS011;4642;51.364;6.788;2023-09-18T09:45:56;3.97;;;1.50;;
9214;SDS011;4642;51.364;6.788;2023-09-18T09:48:23;7.33;;;1.60;;
9214;SDS011;4642;51.364;6.788;2023-09-18T09:50:50;2.97;;;1.20;;
9214;SDS011;4642;51.364;6.788;2023-09-18T09:53:16;3.67;;;1.13;;
9214;SDS011;4642;51.364;6.788;2023-09-18T09:55:43;4.10;;;1.50;;
9214;SDS011;4642;51.364;6.788;2023-09-18T09:58:09;3.07;;;1.50;;
9214;SDS011;4642;51.364;6.788;2023-09-18T10:00:41;6.07;;;1.30;;
9214;SDS011;4642;51.364;6.788;2023-09-18T10:03:12;4.40;;;1.30;;
9214;SDS011;4642;51.364;6.788;2023-09-18T10:05:40;2.73;;;1.53;;
9214;SDS011;4642;51.364;6.788;2023-09-18T10:08:16;3.00;;;1.47;;
9214;SDS011;4642;51.364;6.788;2023-09-18T10:10:48;1.93;;;1.10;;
9214;SDS011;4642;51.364;6.788;2023-09-18T10:13:16;4.57;;;1.33;;
9214;SDS011;4642;51.364;6.788;2023-09-18T10:15:42;4.83;;;1.50;;
9214;SDS011;4642;51.364;6.788;2023-09-18T10:18:18;3.27;;;1.37;;
9214;SDS011;4642;51.364;6.788;2023-09-18T10:21:14;3.10;;;1.10;;
9214;SDS011;4642;51.364;6.788;2023-09-18T10:23:59;2.67;;;1.47;;
9214;SDS011;4642;51.364;6.788;2023-09-18T10:26:42;2.37;;;1.10;;
9214;SDS011;4642;51.364;6.788;2023-09-18T10:29:19;2.50;;;1.90;;
9214;SDS011;4642;51.364;6.788;2023-09-18T10:31:45;2.73;;;1.40;;
9214;SDS011;4642;51.364;6.788;2023-09-18T10:34:13;2.53;;;1.30;;
9214;SDS011;4642;51.364;6.788;2023-09-18T10:36:41;5.90;;;1.40;;
9214;SDS011;4642;51.364;6.788;2023-09-18T10:39:06;4.80;;;1.63;;
9214;SDS011;4642;51.364;6.788;2023-09-18T10:41:35;3.70;;;1.37;;
9214;SDS011;4642;51.364;6.788;2023-09-18T10:44:02;6.10;;;1.40;;
9214;SDS011;4642;51.364;6.788;2023-09-18T10:46:29;4.30;;;1.60;;
9214;SDS011;4642;51.364;6.788;2023-09-18T10:48:55;2.87;;;1.53;;
9214;SDS011;4642;51.364;6.788;2023-09-18T10:51:22;2.93;;;1.53;;
9214;SDS011;4642;51.364;6.788;2023-09-18T10:53:48;3.57;;;1.50;;
9214;SDS011;4642;51.364;6.788;2023-09-18T10:56:14;4.00;;;1.53;;
9214;SDS011;4642;51.364;6.788;2023-09-18T10:58:41;4.73;;;1.50;;
9214;SDS011;4642;51.364;6.788;2023-09-18T11:01:10;3.77;;;1.70;;
9214;SDS011;4642;51.364;6.788;2023-09-18T11:03:39;6.53;;;1.40;;
9214;SDS011;4642;51.364;6.788;2023-09-18T11:06:07;6.43;;;1.70;;
9214;SDS011;4642;51.364;6.788;2023-09-18T11:08:49;3.80;;;1.60;;
9214;SDS011;4642;51.364;6.788;2023-09-18T11:11:17;5.57;;;1.90;;
9214;SDS011;4642;51.364;6.788;2023-09-18T11:13:50;4.13;;;1.50;;
9214;SDS011;4642;51.364;6.788;2023-09-18T11:21:24;4.97;;;1.70;;
9214;SDS011;4642;51.364;6.788;2023-09-18T11:24:05;6.03;;;1.73;;
9214;SDS011;4642;51.364;6.788;2023-09-18T11:26:42;4.70;;;1.60;;
9214;SDS011;4642;51.364;6.788;2023-09-18T11:29:10;3.13;;;1.33;;
9214;SDS011;4642;51.364;6.788;2023-09-18T11:31:44;3.33;;;1.43;;
9214;SDS011;4642;51.364;6.788;2023-09-18T11:36:56;7.20;;;1.67;;
9214;SDS011;4642;51.364;6.788;2023-09-18T11:39:41;6.50;;;1.60;;
9214;SDS011;4642;51.364;6.788;2023-09-18T11:42:10;6.73;;;1.70;;
9214;SDS011;4642;51.364;6.788;2023-09-18T11:44:42;3.23;;;1.60;;
9214;SDS011;4642;51.364;6.788;2023-09-18T11:47:12;4.57;;;1.40;;
9214;SDS011;4642;51.364;6.788;2023-09-18T11:49:49;4.17;;;1.40;;
9214;SDS011;4642;51.364;6.788;2023-09-18T11:52:19;7.33;;;1.77;;
9214;SDS011;4642;51.364;6.788;2023-09-18T11:54:46;7.63;;;1.73;;
9214;SDS011;4642;51.364;6.788;2023-09-18T11:57:13;4.33;;;1.80;;
9214;SDS011;4642;51.364;6.788;2023-09-18T11:59:40;6.37;;;1.47;;
9214;SDS011;4642;51.364;6.788;2023-09-18T12:02:07;4.77;;;1.67;;
9214;SDS011;4642;51.364;6.788;2023-09-18T12:04:35;2.87;;;1.50;;
9214;SDS011;4642;51.364;6.788;2023-09-18T12:07:03;4.47;;;1.60;;
9214;SDS011;4642;51.364;6.788;2023-09-18T12:09:30;2.47;;;1.50;;
9214;SDS011;4642;51.364;6.788;2023-09-18T12:11:57;3.47;;;1.40;;
9214;SDS011;4642;51.364;6.788;2023-09-18T12:14:23;4.50;;;1.60;;
9214;SDS011;4642;51.364;6.788;2023-09-18T12:16:49;3.57;;;1.53;;
9214;SDS011;4642;51.364;6.788;2023-09-18T12:19:18;2.43;;;1.50;;
9214;SDS011;4642;51.364;6.788;2023-09-18T12:21:47;3.47;;;1.40;;
9214;SDS011;4642;51.364;6.788;2023-09-18T12:24:14;6.63;;;1.60;;
9214;SDS011;4642;51.364;6.788;2023-09-18T12:26:45;5.07;;;1.90;;
9214;SDS011;4642;51.364;6.788;2023-09-18T12:29:11;2.00;;;1.40;;
9214;SDS011;4642;51.364;6.788;2023-09-18T12:31:36;1.83;;;1.20;;
9214;SDS011;4642;51.364;6.788;2023-09-18T12:34:02;5.90;;;1.53;;
9214;SDS011;4642;51.364;6.788;2023-09-18T12:36:28;4.83;;;1.67;;
9214;SDS011;4642;51.364;6.788;2023-09-18T12:38:59;10.23;;;1.90;;
9214;SDS011;4642;51.364;6.788;2023-09-18T12:41:28;8.40;;;1.60;;
9214;SDS011;4642;51.364;6.788;2023-09-18T12:43:55;5.83;;;1.50;;
9214;SDS011;4642;51.364;6.788;2023-09-18T12:46:21;5.93;;;1.60;;
9214;SDS011;4642;51.364;6.788;2023-09-18T12:48:47;2.27;;;1.57;;
9214;SDS011;4642;51.364;6.788;2023-09-18T12:51:13;5.17;;;1.50;;
9214;SDS011;4642;51.364;6.788;2023-09-18T12:53:40;2.80;;;1.30;;
9214;SDS011;4642;51.364;6.788;2023-09-18T12:56:12;3.10;;;1.80;;
9214;SDS011;4642;51.364;6.788;2023-09-18T12:58:38;3.33;;;1.30;;
9214;SDS011;4642;51.364;6.788;2023-09-18T13:01:08;3.97;;;1.80;;
9214;SDS011;4642;51.364;6.788;2023-09-18T13:03:35;4.27;;;1.53;;
9214;SDS011;4642;51.364;6.788;2023-09-18T13:06:10;3.53;;;1.40;;
9214;SDS011;4642;51.364;6.788;2023-09-18T13:08:37;3.00;;;1.20;;
9214;SDS011;4642;51.364;6.788;2023-09-18T13:11:03;2.30;;;1.30;;
9214;SDS011;4642;51.364;6.788;2023-09-18T13:13:29;4.33;;;1.40;;
9214;SDS011;4642;51.364;6.788;2023-09-18T13:15:58;3.13;;;1.50;;
9214;SDS011;4642;51.364;6.788;2023-09-18T13:18:25;3.80;;;1.55;;
9214;SDS011;4642;51.364;6.788;2023-09-18T13:20:52;2.05;;;1.40;;
9214;SDS011;4642;51.364;6.788;2023-09-18T13:23:18;4.63;;;1.38;;
9214;SDS011;4642;51.364;6.788;2023-09-18T13:25:44;5.10;;;1.50;;
9214;SDS011;4642;51.364;6.788;2023-09-18T13:28:12;4.10;;;1.25;;
9214;SDS011;4642;51.364;6.788;2023-09-18T13:30:39;6.18;;;1.45;;
9214;SDS011;4642;51.364;6.788;2023-09-18T13:35:32;4.15;;;1.40;;
9214;SDS011;4642;51.364;6.788;2023-09-18T13:37:58;2.53;;;1.50;;
9214;SDS011;4642;51.364;6.788;2023-09-18T13:40:24;3.88;;;1.42;;
9214;SDS011;4642;51.364;6.788;2023-09-18T13:42:50;2.93;;;1.27;;
9214;SDS011;4642;51.364;6.788;2023-09-18T13:45:16;4.17;;;1.60;;
9214;SDS011;4642;51.364;6.788;2023-09-18T13:47:42;4.60;;;1.63;;
9214;SDS011;4642;51.364;6.788;2023-09-18T13:50:10;3.53;;;1.08;;
9214;SDS011;4642;51.364;6.788;2023-09-18T13:52:38;2.13;;;1.23;;
9214;SDS011;4642;51.364;6.788;2023-09-18T13:55:03;2.15;;;1.13;;
9214;SDS011;4642;51.364;6.788;2023-09-18T13:57:34;5.82;;;1.75;;
9214;SDS011;4642;51.364;6.788;2023-09-18T14:00:00;4.23;;;1.50;;
9214;SDS011;4642;51.364;6.788;2023-09-18T14:02:31;3.20;;;1.67;;
9214;SDS011;4642;51.364;6.788;2023-09-18T14:04:57;1.80;;;1.35;;
9214;SDS011;4642;51.364;6.788;2023-09-18T14:07:23;2.77;;;1.23;;
9214;SDS011;4642;51.364;6.788;2023-09-18T14:09:49;3.47;;;1.63;;
9214;SDS011;4642;51.364;6.788;2023-09-18T14:12:15;2.42;;;1.40;;
9214;SDS011;4642;51.364;6.788;2023-09-18T14:14:41;4.35;;;1.65;;
9214;SDS011;4642;51.364;6.788;2023-09-18T14:17:07;2.95;;;1.40;;
9214;SDS011;4642;51.364;6.788;2023-09-18T14:19:34;3.67;;;1.60;;
9214;SDS011;4642;51.364;6.788;2023-09-18T14:21:59;5.47;;;1.67;;
9214;SDS011;4642;51.364;6.788;2023-09-18T14:24:29;9.07;;;1.83;;
9214;SDS011;4642;51.364;6.788;2023-09-18T14:26:55;1.88;;;1.40;;
9214;SDS011;4642;51.364;6.788;2023-09-18T14:29:21;6.22;;;1.50;;
9214;SDS011;4642;51.364;6.788;2023-09-18T14:31:46;2.80;;;1.20;;
9214;SDS011;4642;51.364;6.788;2023-09-18T14:34:12;2.35;;;1.42;;
9214;SDS011;4642;51.364;6.788;2023-09-18T14:36:38;2.67;;;1.35;;
9214;SDS011;4642;51.364;6.788;2023-09-18T14:39:05;2.40;;;1.20;;
9214;SDS011;4642;51.364;6.788;2023-09-18T14:41:37;3.58;;;1.38;;
9214;SDS011;4642;51.364;6.788;2023-09-18T14:44:03;3.20;;;1.48;;
9214;SDS011;4642;51.364;6.788;2023-09-18T14:46:30;4.82;;;1.42;;
9214;SDS011;4642;51.364;6.788;2023-09-18T14:48:58;2.58;;;1.17;;
9214;SDS011;4642;51.364;6.788;2023-09-18T14:51:25;2.95;;;1.40;;
9214;SDS011;4642;51.364;6.788;2023-09-18T14:53:50;4.85;;;1.20;;
9214;SDS011;4642;51.364;6.788;2023-09-18T14:56:16;3.75;;;1.30;;
9214;SDS011;4642;51.364;6.788;2023-09-18T14:58:41;3.47;;;1.42;;
9214;SDS011;4642;51.364;6.788;2023-09-18T15:01:08;3.90;;;1.58;;
9214;SDS011;4642;51.364;6.788;2023-09-18T15:03:35;4.72;;;1.75;;
9214;SDS011;4642;51.364;6.788;2023-09-18T15:06:00;2.00;;;1.30;;
9214;SDS011;4642;51.364;6.788;2023-09-18T15:08:26;3.03;;;1.55;;
9214;SDS011;4642;51.364;6.788;2023-09-18T15:10:52;3.80;;;1.20;;
9214;SDS011;4642;51.364;6.788;2023-09-18T15:13:17;4.82;;;1.58;;
9214;SDS011;4642;51.364;6.788;2023-09-18T15:15:43;4.10;;;1.40;;
9214;SDS011;4642;51.364;6.788;2023-09-18T15:18:09;4.25;;;1.67;;
9214;SDS011;4642;51.364;6.788;2023-09-18T15:20:35;3.38;;;1.40;;
9214;SDS011;4642;51.364;6.788;2023-09-18T15:23:00;5.38;;;1.48;;
9214;SDS011;4642;51.364;6.788;2023-09-18T15:25:26;2.65;;;1.40;;